createdAt,value
2019-03-12T00:02:08.717Z,99.90
2019-03-12T00:05:15.741Z,99.90
2019-03-12T00:08:22.926Z,99.90
2019-03-12T00:11:30.537Z,99.90
2019-03-12T00:14:37.605Z,99.90
2019-03-12T00:17:44.591Z,99.90
2019-03-12T00:20:51.613Z,99.90
2019-03-12T00:23:58.917Z,99.90
2019-03-12T00:27:06.098Z,99.90
2019-03-12T00:30:13.606Z,99.90
2019-03-12T00:33:20.714Z,99.90
2019-03-12T00:36:28.228Z,99.90
2019-03-12T00:39:35.640Z,99.90
2019-03-12T00:42:42.819Z,99.90
2019-03-12T00:45:50.251Z,99.90
2019-03-12T00:48:57.401Z,99.90
2019-03-12T00:52:04.516Z,99.90
2019-03-12T00:55:12.208Z,99.90
2019-03-12T00:58:19.254Z,99.90
2019-03-12T01:01:26.760Z,99.90
2019-03-12T01:04:36.355Z,99.90
2019-03-12T01:07:43.486Z,99.90
2019-03-12T01:10:50.598Z,99.90
2019-03-12T01:13:58.013Z,99.90
2019-03-12T01:17:05.218Z,99.90
2019-03-12T01:20:12.853Z,99.90
2019-03-12T01:23:19.956Z,99.90
2019-03-12T01:26:27.204Z,99.90
2019-03-12T01:29:34.475Z,99.90
2019-03-12T01:32:41.651Z,99.90
2019-03-12T01:35:48.881Z,99.90
2019-03-12T01:38:56.141Z,99.90
2019-03-12T01:42:03.181Z,99.90
2019-03-12T01:45:13.635Z,99.90
2019-03-12T01:48:20.676Z,99.90
2019-03-12T01:51:30.967Z,99.90
2019-03-12T01:54:36.887Z,99.90
2019-03-12T01:57:44.073Z,99.90
2019-03-12T02:00:51.230Z,99.90
2019-03-12T02:03:58.313Z,99.90
2019-03-12T02:07:05.370Z,99.90
2019-03-12T02:10:12.783Z,99.90
2019-03-12T02:13:21.380Z,99.90
2019-03-12T02:16:28.414Z,99.90
2019-03-12T02:19:35.642Z,99.90
2019-03-12T02:22:42.863Z,99.90
2019-03-12T02:25:50.062Z,99.90
2019-03-12T02:28:57.078Z,99.90
2019-03-12T02:32:05.679Z,99.90
2019-03-12T02:35:13.028Z,99.90
2019-03-12T02:38:20.195Z,99.90
2019-03-12T02:41:27.550Z,99.90
2019-03-12T02:44:34.591Z,99.90
2019-03-12T02:47:41.768Z,99.90
2019-03-12T02:50:48.869Z,99.90
2019-03-12T02:53:56.017Z,99.90
2019-03-12T02:57:03.041Z,99.90
2019-03-12T03:00:16.684Z,99.90
2019-03-12T03:03:23.736Z,99.90
2019-03-12T03:06:48.619Z,99.90
2019-03-12T03:09:55.780Z,99.90
2019-03-12T03:13:03.245Z,99.90
2019-03-12T03:16:10.257Z,99.90
2019-03-12T03:19:17.520Z,99.90
2019-03-12T03:22:24.990Z,99.90
2019-03-12T03:25:31.989Z,99.90
2019-03-12T03:28:40.130Z,99.90
2019-03-12T03:31:47.267Z,99.90
2019-03-12T03:34:55.339Z,99.90
2019-03-12T03:38:02.315Z,99.90
2019-03-12T03:41:09.552Z,99.90
2019-03-12T03:44:16.538Z,99.90
2019-03-12T03:47:23.517Z,99.90
2019-03-12T03:50:30.801Z,99.90
2019-03-12T03:53:38.017Z,99.90
2019-03-12T03:56:45.067Z,99.90
2019-03-12T03:59:52.341Z,99.90
2019-03-12T04:02:59.386Z,99.90
2019-03-12T04:06:06.718Z,99.90
2019-03-12T04:09:13.819Z,99.90
2019-03-12T04:12:21.057Z,99.90
2019-03-12T04:15:28.371Z,99.90
2019-03-12T04:18:35.427Z,99.90
2019-03-12T04:21:42.653Z,99.90
2019-03-12T04:24:49.658Z,99.90
2019-03-12T04:27:56.716Z,99.90
2019-03-12T04:31:03.899Z,99.90
2019-03-12T04:34:34.285Z,99.90
2019-03-12T04:37:41.406Z,99.90
2019-03-12T04:40:48.607Z,99.90
2019-03-12T04:43:56.275Z,99.90
2019-03-12T04:47:03.310Z,99.90
2019-03-12T04:50:10.486Z,99.90
2019-03-12T04:53:17.606Z,99.90
2019-03-12T04:56:24.785Z,99.90
2019-03-12T04:59:32.017Z,99.90
2019-03-12T05:02:38.993Z,99.90
2019-03-12T05:05:46.049Z,99.90
2019-03-12T05:08:53.126Z,99.90
2019-03-12T05:12:00.167Z,99.90
2019-03-12T05:15:09.593Z,99.90
2019-03-12T05:18:16.761Z,99.90
2019-03-12T05:21:23.874Z,99.90
2019-03-12T05:24:30.766Z,99.90
2019-03-12T05:27:38.017Z,99.90
2019-03-12T05:30:45.027Z,99.90
2019-03-12T05:33:52.430Z,99.90
2019-03-12T05:36:59.456Z,99.90
2019-03-12T05:40:07.064Z,99.90
2019-03-12T05:43:14.822Z,99.90
2019-03-12T05:46:21.809Z,99.90
2019-03-12T05:49:29.227Z,99.90
2019-03-12T05:52:36.270Z,99.90
2019-03-12T05:55:43.641Z,99.90
2019-03-12T05:58:50.782Z,99.90
2019-03-12T06:01:57.939Z,99.90
2019-03-12T06:05:05.265Z,99.90
2019-03-12T06:08:12.427Z,99.90
2019-03-12T06:11:19.852Z,99.90
2019-03-12T06:14:27.047Z,99.90
2019-03-12T06:17:34.146Z,99.90
2019-03-12T06:20:41.520Z,99.90
2019-03-12T06:23:48.619Z,99.90
2019-03-12T06:26:55.693Z,99.90
2019-03-12T06:30:03.244Z,99.90
2019-03-12T06:33:18.930Z,99.90
2019-03-12T06:36:34.048Z,99.90
2019-03-12T06:40:05.962Z,99.90
2019-03-12T06:43:20.731Z,99.90
2019-03-12T06:46:41.044Z,99.90
2019-03-12T06:50:22.276Z,99.90
2019-03-12T06:53:45.335Z,99.90
2019-03-12T06:57:20.423Z,99.90
2019-03-12T07:00:40.775Z,99.90
2019-03-12T07:04:18.974Z,99.90
2019-03-12T07:07:45.958Z,99.90
2019-03-12T07:11:17.599Z,99.90
2019-03-12T07:14:29.146Z,99.90
2019-03-12T07:18:13.602Z,99.90
2019-03-12T07:21:39.595Z,99.90
2019-03-12T07:25:06.752Z,99.90
2019-03-12T07:28:20.912Z,99.90
2019-03-12T07:31:47.164Z,99.90
2019-03-12T07:35:03.483Z,99.90
2019-03-12T07:38:44.666Z,99.90
2019-03-12T07:42:06.465Z,99.90
2019-03-12T07:45:25.958Z,99.90
2019-03-12T07:49:06.994Z,99.90
2019-03-12T07:52:28.576Z,99.90
2019-03-12T07:56:12.642Z,99.90
2019-03-12T07:59:38.814Z,99.90
2019-03-12T08:03:03.539Z,99.90
2019-03-12T08:06:19.012Z,99.90
2019-03-12T08:09:38.810Z,99.90
2019-03-12T08:13:07.788Z,99.90
2019-03-12T08:16:32.200Z,99.90
2019-03-12T08:20:01.585Z,99.90
2019-03-12T08:23:26.263Z,99.90
2019-03-12T08:26:50.969Z,99.90
2019-03-12T08:30:16.180Z,99.90
2019-03-12T08:33:50.942Z,99.90
2019-03-12T08:37:13.741Z,99.90
2019-03-12T08:40:52.533Z,99.90
2019-03-12T08:44:12.788Z,99.90
2019-03-12T08:47:27.479Z,99.90
2019-03-12T08:50:52.348Z,99.90
2019-03-12T08:54:27.566Z,99.90
2019-03-12T08:57:45.695Z,99.90
2019-03-12T09:01:10.515Z,99.90
2019-03-12T09:04:42.784Z,99.90
2019-03-12T09:08:02.875Z,99.90
2019-03-12T09:11:29.120Z,99.90
2019-03-12T09:15:07.292Z,99.90
2019-03-12T09:18:32.094Z,99.90
2019-03-12T09:21:56.912Z,99.90
2019-03-12T09:25:20.561Z,99.90
2019-03-12T09:28:56.054Z,99.90
2019-03-12T09:32:18.223Z,99.90
2019-03-12T09:35:47.193Z,99.90
2019-03-12T09:39:05.577Z,99.90
2019-03-12T09:42:30.584Z,99.90
2019-03-12T09:45:55.983Z,99.90
2019-03-12T09:49:40.144Z,99.90
2019-03-12T09:53:04.728Z,99.90
2019-03-12T09:56:48.696Z,99.90
2019-03-12T10:00:17.811Z,99.90
2019-03-12T10:03:37.166Z,99.90
2019-03-12T10:07:06.432Z,99.90
2019-03-12T10:10:38.401Z,99.90
2019-03-12T10:14:09.026Z,99.90
2019-03-12T10:17:51.069Z,99.90
2019-03-12T10:21:03.659Z,99.90
2019-03-12T10:24:20.115Z,99.90
2019-03-12T10:27:45.094Z,99.90
2019-03-12T10:31:29.382Z,99.90
2019-03-12T10:35:11.455Z,99.90
2019-03-12T10:39:07.600Z,99.90
2019-03-12T10:42:29.946Z,99.90
2019-03-12T10:45:48.031Z,99.90
2019-03-12T10:48:55.154Z,99.90
2019-03-12T10:52:02.157Z,99.90
2019-03-12T10:55:13.621Z,99.90
2019-03-12T10:58:18.394Z,99.90
2019-03-12T11:01:25.665Z,99.90
2019-03-12T11:04:33.067Z,99.90
2019-03-12T11:07:40.244Z,99.90
2019-03-12T11:10:47.410Z,99.90
2019-03-12T11:13:54.592Z,99.90
2019-03-12T11:17:02.040Z,99.90
2019-03-12T11:20:10.839Z,99.90
2019-03-12T11:23:17.976Z,99.90
2019-03-12T11:26:25.449Z,99.90
2019-03-12T11:29:32.928Z,99.90
2019-03-12T11:32:40.454Z,99.90
2019-03-12T11:35:47.593Z,99.90
2019-03-12T11:38:54.757Z,99.90
2019-03-12T11:42:01.869Z,99.90
2019-03-12T11:45:15.396Z,99.90
2019-03-12T11:48:17.891Z,99.90
2019-03-12T11:51:25.470Z,99.90
2019-03-12T11:54:32.566Z,99.90
2019-03-12T11:57:40.159Z,99.90
2019-03-12T12:00:56.111Z,99.90
2019-03-12T12:04:03.292Z,99.90
2019-03-12T12:07:10.630Z,99.90
2019-03-12T12:10:18.169Z,99.90
2019-03-12T12:13:25.394Z,99.90
2019-03-12T12:16:32.793Z,99.90
2019-03-12T12:19:39.979Z,99.90
2019-03-12T12:22:47.038Z,99.90
2019-03-12T12:25:54.390Z,99.90
2019-03-12T12:29:01.753Z,99.90
2019-03-12T12:32:09.053Z,99.90
2019-03-12T12:35:16.372Z,99.90
2019-03-12T12:38:23.742Z,99.90
2019-03-12T12:41:31.002Z,99.90
2019-03-12T12:44:38.102Z,99.90
2019-03-12T12:47:45.271Z,99.90
2019-03-12T12:51:02.407Z,99.90
2019-03-12T12:54:01.153Z,99.90
2019-03-12T12:57:08.381Z,99.90
2019-03-12T13:00:18.073Z,99.90
2019-03-12T13:03:25.619Z,99.90
2019-03-12T13:06:32.608Z,99.90
2019-03-12T13:09:39.858Z,99.90
2019-03-12T13:12:47.120Z,99.90
2019-03-12T13:15:54.285Z,99.90
2019-03-12T13:19:01.571Z,99.90
2019-03-12T13:22:08.533Z,99.90
2019-03-12T13:25:15.952Z,99.90
2019-03-12T13:28:23.136Z,99.90
2019-03-12T13:31:30.367Z,99.90
2019-03-12T13:34:37.884Z,99.90
2019-03-12T13:37:45.472Z,99.90
2019-03-12T13:40:52.637Z,99.00
2019-03-12T13:43:59.830Z,99.90
2019-03-12T13:47:07.097Z,99.90
2019-03-12T13:50:14.732Z,99.90
2019-03-12T13:53:21.829Z,99.40
2019-03-12T13:56:29.182Z,99.90
2019-03-12T13:59:36.203Z,99.90
2019-03-12T14:02:43.586Z,99.90
2019-03-12T14:05:51.014Z,99.90
2019-03-12T14:08:58.110Z,99.90
2019-03-12T14:12:05.998Z,99.50
2019-03-12T14:15:16.507Z,99.90
2019-03-12T14:18:23.863Z,99.90
2019-03-12T14:21:38.523Z,99.90
2019-03-12T14:24:45.861Z,99.90
2019-03-12T14:27:53.038Z,99.90
2019-03-12T14:31:00.259Z,99.90
2019-03-12T14:34:07.551Z,99.90
2019-03-12T14:37:14.652Z,99.90
2019-03-12T14:40:22.092Z,99.90
2019-03-12T14:43:29.156Z,99.90
2019-03-12T14:46:36.495Z,99.90
2019-03-12T14:49:43.816Z,99.90
2019-03-12T14:52:54.143Z,99.90
2019-03-12T14:56:01.296Z,99.90
2019-03-12T14:59:08.676Z,99.90
2019-03-12T15:02:15.973Z,99.90
2019-03-12T15:05:23.190Z,99.90
2019-03-12T15:08:30.441Z,99.90
2019-03-12T15:11:37.589Z,99.90
2019-03-12T15:14:44.967Z,99.90
2019-03-12T15:17:52.148Z,99.90
2019-03-12T15:20:59.213Z,99.90
2019-03-12T15:24:06.392Z,99.90
2019-03-12T15:27:14.788Z,99.90
2019-03-12T15:30:43.711Z,99.90
2019-03-12T15:33:50.782Z,99.90
2019-03-12T15:36:58.487Z,99.90
2019-03-12T15:40:06.178Z,99.90
2019-03-12T15:43:13.351Z,99.90
2019-03-12T15:46:20.503Z,99.90
2019-03-12T15:49:27.737Z,99.90
2019-03-12T15:52:34.807Z,99.90
2019-03-12T15:55:42.081Z,99.90
2019-03-12T15:58:49.522Z,99.90
2019-03-12T16:01:56.719Z,99.90
2019-03-12T16:05:04.115Z,99.90
2019-03-12T16:08:11.164Z,99.90
2019-03-12T16:11:18.210Z,99.90
2019-03-12T16:14:26.024Z,99.90
2019-03-12T16:17:34.606Z,99.90
2019-03-12T16:20:41.811Z,99.90
2019-03-12T16:23:52.517Z,99.90
2019-03-12T16:26:58.969Z,99.90
2019-03-12T16:30:07.256Z,99.90
2019-03-12T16:33:14.622Z,99.90
2019-03-12T16:36:21.723Z,99.90
2019-03-12T16:39:29.209Z,99.90
2019-03-12T16:42:36.235Z,99.90
2019-03-12T16:45:43.334Z,99.90
2019-03-12T16:48:50.582Z,99.90
2019-03-12T16:51:57.577Z,99.90
2019-03-12T16:55:05.509Z,99.90
2019-03-12T16:58:13.251Z,99.90
2019-03-12T17:01:20.514Z,99.90
2019-03-12T17:04:27.717Z,99.90
2019-03-12T17:07:34.885Z,99.90
2019-03-12T17:10:54.394Z,99.90
2019-03-12T17:13:51.252Z,99.90
2019-03-12T17:16:58.725Z,99.90
2019-03-12T17:20:06.519Z,99.90
2019-03-12T17:23:13.894Z,99.90
2019-03-12T17:26:21.194Z,99.90
2019-03-12T17:29:28.491Z,99.90
2019-03-12T17:32:35.810Z,99.90
2019-03-12T17:35:42.873Z,99.90
2019-03-12T17:38:50.141Z,99.90
2019-03-12T17:42:01.039Z,99.90
2019-03-12T17:45:09.012Z,99.90
2019-03-12T17:48:16.094Z,99.90
2019-03-12T17:51:23.261Z,99.90
2019-03-12T17:54:32.098Z,99.90
2019-03-12T17:57:39.798Z,99.90
2019-03-12T18:00:47.087Z,99.90
2019-03-12T18:03:54.433Z,99.90
2019-03-12T18:07:01.681Z,99.90
2019-03-12T18:10:11.119Z,99.90
2019-03-12T18:13:18.234Z,98.40
2019-03-12T18:16:25.547Z,97.70
2019-03-12T18:19:33.125Z,97.10
2019-03-12T18:22:40.338Z,97.90
2019-03-12T18:25:47.475Z,96.70
2019-03-12T18:28:54.950Z,94.60
2019-03-12T18:32:02.542Z,94.60
2019-03-12T18:35:09.983Z,94.80
2019-03-12T18:38:17.473Z,94.00
2019-03-12T18:41:24.720Z,94.00
2019-03-12T18:44:31.706Z,96.60
2019-03-12T18:47:39.938Z,95.20
2019-03-12T18:50:47.286Z,96.00
2019-03-12T18:53:54.517Z,94.70
2019-03-12T18:57:01.807Z,96.50
2019-03-12T19:00:12.723Z,95.40
2019-03-12T19:03:19.928Z,96.10
2019-03-12T19:06:27.377Z,94.50
2019-03-12T19:09:34.396Z,94.40
2019-03-12T19:12:41.439Z,96.00
2019-03-12T19:15:48.536Z,94.80
2019-03-12T19:18:55.805Z,95.70
2019-03-12T19:22:03.275Z,94.40
2019-03-12T19:25:10.272Z,94.60
2019-03-12T19:28:17.580Z,94.70
2019-03-12T19:31:37.934Z,93.80
2019-03-12T19:34:45.764Z,93.20
2019-03-12T19:37:53.232Z,93.20
2019-03-12T19:41:00.440Z,93.00
2019-03-12T19:44:08.097Z,94.30
2019-03-12T19:47:15.186Z,93.60
2019-03-12T19:50:22.424Z,95.40
2019-03-12T19:53:29.745Z,96.30
2019-03-12T19:56:36.936Z,94.00
2019-03-12T19:59:44.408Z,95.30
2019-03-12T20:02:51.996Z,95.00
2019-03-12T20:05:58.934Z,94.60
2019-03-12T20:09:08.560Z,96.30
2019-03-12T20:12:45.736Z,96.20
2019-03-12T20:16:44.492Z,96.10
2019-03-12T20:20:17.945Z,96.30
2019-03-12T20:24:21.013Z,95.10
2019-03-12T20:28:30.207Z,94.80
2019-03-12T20:32:13.408Z,96.40
2019-03-12T20:36:18.123Z,94.20
2019-03-12T20:40:24.232Z,95.20
2019-03-12T20:44:17.174Z,95.20
2019-03-12T20:47:57.768Z,94.60
2019-03-12T20:51:56.630Z,95.80
2019-03-12T20:55:55.634Z,95.60
2019-03-12T20:59:52.604Z,96.60
2019-03-12T21:03:40.247Z,95.90
2019-03-12T21:07:20.621Z,95.90
2019-03-12T21:11:16.924Z,94.70
2019-03-12T21:15:13.100Z,95.40
2019-03-12T21:19:10.314Z,95.90
2019-03-12T21:23:07.442Z,95.20
2019-03-12T21:26:57.504Z,95.70
2019-03-12T21:30:02.929Z,95.60
2019-03-12T21:33:15.173Z,95.90
2019-03-12T21:36:21.026Z,96.20
2019-03-12T21:39:28.505Z,95.60
2019-03-12T21:42:36.072Z,95.80
2019-03-12T21:45:43.602Z,96.80
2019-03-12T21:48:51.040Z,96.50
2019-03-12T21:51:58.446Z,97.40
2019-03-12T21:55:08.099Z,96.60
2019-03-12T21:58:15.792Z,96.20
2019-03-12T22:01:23.382Z,96.20
2019-03-12T22:04:30.900Z,97.20
2019-03-12T22:07:38.377Z,97.00
2019-03-12T22:10:45.547Z,96.90
2019-03-12T22:13:53.072Z,97.60
2019-03-12T22:17:01.418Z,97.90
2019-03-12T22:20:12.754Z,97.30
2019-03-12T22:23:23.495Z,97.80
2019-03-12T22:26:32.989Z,99.30
2019-03-12T22:29:40.971Z,98.40
2019-03-12T22:32:48.487Z,98.20
2019-03-12T22:35:55.731Z,97.60
2019-03-12T22:39:03.216Z,99.30
2019-03-12T22:42:11.398Z,99.90
2019-03-12T22:45:18.734Z,99.90
2019-03-12T22:48:26.033Z,99.90
2019-03-12T22:51:33.307Z,99.90
2019-03-12T22:54:40.890Z,99.90
2019-03-12T22:57:48.132Z,99.90
2019-03-12T23:00:56.086Z,99.90
2019-03-12T23:04:03.889Z,99.90
2019-03-12T23:07:11.176Z,99.90
2019-03-12T23:10:19.769Z,99.90
2019-03-12T23:13:42.891Z,99.90
2019-03-12T23:17:06.076Z,99.90
2019-03-12T23:20:29.327Z,99.90
2019-03-12T23:23:52.590Z,99.90
2019-03-12T23:27:00.244Z,99.90
2019-03-12T23:30:09.995Z,99.90
2019-03-12T23:33:17.113Z,99.90
2019-03-12T23:36:25.022Z,99.90
2019-03-12T23:39:32.705Z,99.90
2019-03-12T23:42:40.024Z,99.90
2019-03-12T23:45:47.236Z,99.90
2019-03-12T23:48:54.386Z,99.90
2019-03-12T23:52:01.950Z,99.90
2019-03-12T23:55:09.195Z,99.90
2019-03-12T23:58:16.103Z,99.90
